sensor_id;sensor_type;location;lat;lon;timestamp;P1;durP1;ratioP1;P2;durP2;ratioP2
20557;SDS011;10437;48.156;11.530;2023-05-27T00:00:38;11.50;;;6.50;;
20557;SDS011;10437;48.156;11.530;2023-05-27T00:03:05;15.25;;;6.10;;
20557;SDS011;10437;48.156;11.530;2023-05-27T00:05:33;10.90;;;6.22;;
20557;SDS011;10437;48.156;11.530;2023-05-27T00:08:00;12.45;;;6.55;;
20557;SDS011;10437;48.156;11.530;2023-05-27T00:10:27;11.95;;;6.28;;
20557;SDS011;10437;48.156;11.530;2023-05-27T00:12:54;14.10;;;5.85;;
20557;SDS011;10437;48.156;11.530;2023-05-27T00:15:22;13.68;;;6.72;;
20557;SDS011;10437;48.156;11.530;2023-05-27T00:17:49;10.88;;;6.10;;
20557;SDS011;10437;48.156;11.530;2023-05-27T00:20:16;12.20;;;5.95;;
20557;SDS011;10437;48.156;11.530;2023-05-27T00:22:44;12.70;;;5.90;;
20557;SDS011;10437;48.156;11.530;2023-05-27T00:25:12;11.40;;;6.45;;
20557;SDS011;10437;48.156;11.530;2023-05-27T00:27:39;13.57;;;5.95;;
20557;SDS011;10437;48.156;11.530;2023-05-27T00:30:07;15.90;;;6.25;;
20557;SDS011;10437;48.156;11.530;2023-05-27T00:32:36;11.63;;;6.32;;
20557;SDS011;10437;48.156;11.530;2023-05-27T00:35:03;10.75;;;6.40;;
20557;SDS011;10437;48.156;11.530;2023-05-27T00:37:30;18.67;;;6.97;;
20557;SDS011;10437;48.156;11.530;2023-05-27T00:39:57;16.00;;;6.63;;
20557;SDS011;10437;48.156;11.530;2023-05-27T00:42:24;14.68;;;6.38;;
20557;SDS011;10437;48.156;11.530;2023-05-27T00:44:52;13.75;;;6.70;;
20557;SDS011;10437;48.156;11.530;2023-05-27T00:47:19;12.48;;;6.85;;
20557;SDS011;10437;48.156;11.530;2023-05-27T00:49:47;12.80;;;6.88;;
20557;SDS011;10437;48.156;11.530;2023-05-27T00:52:15;14.80;;;6.75;;
20557;SDS011;10437;48.156;11.530;2023-05-27T00:54:42;14.55;;;7.03;;
20557;SDS011;10437;48.156;11.530;2023-05-27T00:57:10;16.20;;;6.93;;
20557;SDS011;10437;48.156;11.530;2023-05-27T00:59:37;14.40;;;6.75;;
20557;SDS011;10437;48.156;11.530;2023-05-27T01:02:04;10.40;;;6.35;;
20557;SDS011;10437;48.156;11.530;2023-05-27T01:04:31;11.65;;;6.63;;
20557;SDS011;10437;48.156;11.530;2023-05-27T01:07:02;17.15;;;7.05;;
20557;SDS011;10437;48.156;11.530;2023-05-27T01:09:35;13.13;;;6.93;;
20557;SDS011;10437;48.156;11.530;2023-05-27T01:12:10;13.13;;;6.53;;
20557;SDS011;10437;48.156;11.530;2023-05-27T01:14:43;13.05;;;6.88;;
20557;SDS011;10437;48.156;11.530;2023-05-27T01:17:10;11.50;;;6.95;;
20557;SDS011;10437;48.156;11.530;2023-05-27T01:19:40;10.73;;;6.97;;
20557;SDS011;10437;48.156;11.530;2023-05-27T01:22:12;14.98;;;7.15;;
20557;SDS011;10437;48.156;11.530;2023-05-27T01:24:41;12.60;;;6.88;;
20557;SDS011;10437;48.156;11.530;2023-05-27T01:27:08;12.90;;;7.50;;
20557;SDS011;10437;48.156;11.530;2023-05-27T01:29:37;12.45;;;6.82;;
20557;SDS011;10437;48.156;11.530;2023-05-27T01:32:06;13.20;;;6.72;;
20557;SDS011;10437;48.156;11.530;2023-05-27T01:34:38;14.65;;;7.07;;
20557;SDS011;10437;48.156;11.530;2023-05-27T01:37:13;18.15;;;7.18;;
20557;SDS011;10437;48.156;11.530;2023-05-27T01:39:44;14.23;;;7.30;;
20557;SDS011;10437;48.156;11.530;2023-05-27T01:42:12;12.48;;;6.55;;
20557;SDS011;10437;48.156;11.530;2023-05-27T01:44:40;12.32;;;6.80;;
20557;SDS011;10437;48.156;11.530;2023-05-27T01:47:08;11.35;;;6.70;;
20557;SDS011;10437;48.156;11.530;2023-05-27T01:49:35;13.55;;;7.20;;
20557;SDS011;10437;48.156;11.530;2023-05-27T01:52:03;13.68;;;7.53;;
20557;SDS011;10437;48.156;11.530;2023-05-27T01:54:30;14.75;;;6.93;;
20557;SDS011;10437;48.156;11.530;2023-05-27T01:56:59;15.13;;;7.13;;
20557;SDS011;10437;48.156;11.530;2023-05-27T01:59:26;16.52;;;7.25;;
20557;SDS011;10437;48.156;11.530;2023-05-27T02:01:53;14.20;;;7.18;;
20557;SDS011;10437;48.156;11.530;2023-05-27T02:04:20;12.70;;;6.50;;
20557;SDS011;10437;48.156;11.530;2023-05-27T02:06:47;15.48;;;6.72;;
20557;SDS011;10437;48.156;11.530;2023-05-27T02:09:14;11.77;;;6.82;;
20557;SDS011;10437;48.156;11.530;2023-05-27T02:11:41;13.27;;;6.90;;
20557;SDS011;10437;48.156;11.530;2023-05-27T02:14:10;15.35;;;6.78;;
20557;SDS011;10437;48.156;11.530;2023-05-27T02:16:37;11.95;;;6.90;;
20557;SDS011;10437;48.156;11.530;2023-05-27T02:19:05;14.65;;;7.15;;
20557;SDS011;10437;48.156;11.530;2023-05-27T02:21:32;17.30;;;6.93;;
20557;SDS011;10437;48.156;11.530;2023-05-27T02:24:00;12.90;;;7.00;;
20557;SDS011;10437;48.156;11.530;2023-05-27T02:26:27;12.80;;;6.97;;
20557;SDS011;10437;48.156;11.530;2023-05-27T02:28:55;14.98;;;7.57;;
20557;SDS011;10437;48.156;11.530;2023-05-27T02:31:23;17.88;;;7.93;;
20557;SDS011;10437;48.156;11.530;2023-05-27T02:33:50;13.93;;;6.95;;
20557;SDS011;10437;48.156;11.530;2023-05-27T02:36:17;12.88;;;6.82;;
20557;SDS011;10437;48.156;11.530;2023-05-27T02:38:46;15.18;;;7.00;;
20557;SDS011;10437;48.156;11.530;2023-05-27T02:41:13;14.60;;;7.13;;
20557;SDS011;10437;48.156;11.530;2023-05-27T02:43:40;16.58;;;7.28;;
20557;SDS011;10437;48.156;11.530;2023-05-27T02:46:07;12.13;;;7.20;;
20557;SDS011;10437;48.156;11.530;2023-05-27T02:48:35;17.10;;;7.30;;
20557;SDS011;10437;48.156;11.530;2023-05-27T02:51:02;13.68;;;7.50;;
20557;SDS011;10437;48.156;11.530;2023-05-27T02:53:29;14.23;;;7.38;;
20557;SDS011;10437;48.156;11.530;2023-05-27T02:55:57;13.45;;;6.60;;
20557;SDS011;10437;48.156;11.530;2023-05-27T02:58:24;13.23;;;7.15;;
20557;SDS011;10437;48.156;11.530;2023-05-27T03:00:51;13.73;;;6.88;;
20557;SDS011;10437;48.156;11.530;2023-05-27T03:03:18;15.65;;;8.13;;
20557;SDS011;10437;48.156;11.530;2023-05-27T03:05:47;14.45;;;7.03;;
20557;SDS011;10437;48.156;11.530;2023-05-27T03:08:14;15.23;;;7.47;;
20557;SDS011;10437;48.156;11.530;2023-05-27T03:10:41;14.00;;;7.20;;
20557;SDS011;10437;48.156;11.530;2023-05-27T03:13:08;17.75;;;7.28;;
20557;SDS011;10437;48.156;11.530;2023-05-27T03:15:35;12.35;;;6.78;;
20557;SDS011;10437;48.156;11.530;2023-05-27T03:18:03;11.02;;;7.05;;
20557;SDS011;10437;48.156;11.530;2023-05-27T03:20:30;11.68;;;7.28;;
20557;SDS011;10437;48.156;11.530;2023-05-27T03:22:59;12.68;;;7.65;;
20557;SDS011;10437;48.156;11.530;2023-05-27T03:25:25;13.40;;;7.05;;
20557;SDS011;10437;48.156;11.530;2023-05-27T03:27:53;14.00;;;7.43;;
20557;SDS011;10437;48.156;11.530;2023-05-27T03:30:21;14.32;;;7.10;;
20557;SDS011;10437;48.156;11.530;2023-05-27T03:32:48;13.75;;;7.03;;
20557;SDS011;10437;48.156;11.530;2023-05-27T03:35:15;11.73;;;6.60;;
20557;SDS011;10437;48.156;11.530;2023-05-27T03:37:42;15.52;;;7.35;;
20557;SDS011;10437;48.156;11.530;2023-05-27T03:40:12;14.43;;;7.45;;
20557;SDS011;10437;48.156;11.530;2023-05-27T03:42:39;13.68;;;6.82;;
20557;SDS011;10437;48.156;11.530;2023-05-27T03:45:06;12.45;;;7.40;;
20557;SDS011;10437;48.156;11.530;2023-05-27T03:47:34;12.25;;;6.85;;
20557;SDS011;10437;48.156;11.530;2023-05-27T03:50:01;11.73;;;7.10;;
20557;SDS011;10437;48.156;11.530;2023-05-27T03:52:28;13.25;;;6.90;;
20557;SDS011;10437;48.156;11.530;2023-05-27T03:54:55;14.73;;;7.30;;
20557;SDS011;10437;48.156;11.530;2023-05-27T03:57:24;11.45;;;6.00;;
20557;SDS011;10437;48.156;11.530;2023-05-27T03:59:51;18.33;;;7.03;;
20557;SDS011;10437;48.156;11.530;2023-05-27T04:02:18;13.10;;;6.97;;
20557;SDS011;10437;48.156;11.530;2023-05-27T04:04:45;13.63;;;7.00;;
20557;SDS011;10437;48.156;11.530;2023-05-27T04:07:12;12.52;;;6.65;;
20557;SDS011;10437;48.156;11.530;2023-05-27T04:09:40;12.77;;;6.50;;
20557;SDS011;10437;48.156;11.530;2023-05-27T04:12:07;11.88;;;6.85;;
20557;SDS011;10437;48.156;11.530;2023-05-27T04:14:36;15.15;;;6.95;;
20557;SDS011;10437;48.156;11.530;2023-05-27T04:17:03;15.90;;;7.03;;
20557;SDS011;10437;48.156;11.530;2023-05-27T04:19:30;13.73;;;6.82;;
20557;SDS011;10437;48.156;11.530;2023-05-27T04:21:57;13.88;;;6.65;;
20557;SDS011;10437;48.156;11.530;2023-05-27T04:24:25;12.70;;;6.72;;
20557;SDS011;10437;48.156;11.530;2023-05-27T04:26:52;13.35;;;7.18;;
20557;SDS011;10437;48.156;11.530;2023-05-27T04:29:19;13.93;;;6.80;;
20557;SDS011;10437;48.156;11.530;2023-05-27T04:31:49;17.33;;;7.43;;
20557;SDS011;10437;48.156;11.530;2023-05-27T04:34:16;16.33;;;7.60;;
20557;SDS011;10437;48.156;11.530;2023-05-27T04:36:44;13.40;;;7.25;;
20557;SDS011;10437;48.156;11.530;2023-05-27T04:39:14;12.43;;;6.90;;
20557;SDS011;10437;48.156;11.530;2023-05-27T04:41:41;12.77;;;7.10;;
20557;SDS011;10437;48.156;11.530;2023-05-27T04:44:10;16.90;;;7.15;;
20557;SDS011;10437;48.156;11.530;2023-05-27T04:46:37;14.88;;;6.97;;
20557;SDS011;10437;48.156;11.530;2023-05-27T04:49:07;10.27;;;6.50;;
20557;SDS011;10437;48.156;11.530;2023-05-27T04:51:34;13.18;;;7.18;;
20557;SDS011;10437;48.156;11.530;2023-05-27T04:54:02;17.67;;;6.57;;
20557;SDS011;10437;48.156;11.530;2023-05-27T04:56:30;19.85;;;6.40;;
20557;SDS011;10437;48.156;11.530;2023-05-27T04:58:57;12.70;;;6.72;;
20557;SDS011;10437;48.156;11.530;2023-05-27T05:01:25;14.93;;;6.10;;
20557;SDS011;10437;48.156;11.530;2023-05-27T05:03:54;13.25;;;6.50;;
20557;SDS011;10437;48.156;11.530;2023-05-27T05:06:39;13.80;;;6.47;;
20557;SDS011;10437;48.156;11.530;2023-05-27T05:09:06;15.20;;;6.50;;
20557;SDS011;10437;48.156;11.530;2023-05-27T05:11:34;12.20;;;6.22;;
20557;SDS011;10437;48.156;11.530;2023-05-27T05:14:01;12.55;;;6.45;;
20557;SDS011;10437;48.156;11.530;2023-05-27T05:16:28;14.00;;;6.60;;
20557;SDS011;10437;48.156;11.530;2023-05-27T05:18:55;11.75;;;6.30;;
20557;SDS011;10437;48.156;11.530;2023-05-27T05:21:23;13.93;;;6.80;;
20557;SDS011;10437;48.156;11.530;2023-05-27T05:23:51;15.05;;;6.43;;
20557;SDS011;10437;48.156;11.530;2023-05-27T05:26:18;12.75;;;6.00;;
20557;SDS011;10437;48.156;11.530;2023-05-27T05:28:45;13.32;;;5.85;;
20557;SDS011;10437;48.156;11.530;2023-05-27T05:31:12;12.57;;;6.22;;
20557;SDS011;10437;48.156;11.530;2023-05-27T05:33:40;12.65;;;6.25;;
20557;SDS011;10437;48.156;11.530;2023-05-27T05:36:07;10.73;;;5.72;;
20557;SDS011;10437;48.156;11.530;2023-05-27T05:38:34;12.55;;;5.78;;
20557;SDS011;10437;48.156;11.530;2023-05-27T05:41:04;13.55;;;6.00;;
20557;SDS011;10437;48.156;11.530;2023-05-27T05:43:31;11.10;;;5.47;;
20557;SDS011;10437;48.156;11.530;2023-05-27T05:45:58;10.52;;;5.70;;
20557;SDS011;10437;48.156;11.530;2023-05-27T05:48:27;12.07;;;5.60;;
20557;SDS011;10437;48.156;11.530;2023-05-27T05:50:54;10.38;;;5.57;;
20557;SDS011;10437;48.156;11.530;2023-05-27T05:53:21;11.60;;;5.07;;
20557;SDS011;10437;48.156;11.530;2023-05-27T05:55:48;17.05;;;6.03;;
20557;SDS011;10437;48.156;11.530;2023-05-27T05:58:16;14.30;;;5.50;;
20557;SDS011;10437;48.156;11.530;2023-05-27T06:00:44;12.65;;;5.40;;
20557;SDS011;10437;48.156;11.530;2023-05-27T06:03:11;12.57;;;5.38;;
20557;SDS011;10437;48.156;11.530;2023-05-27T06:05:38;11.40;;;5.43;;
20557;SDS011;10437;48.156;11.530;2023-05-27T06:08:05;16.48;;;5.75;;
20557;SDS011;10437;48.156;11.530;2023-05-27T06:10:32;9.77;;;5.38;;
20557;SDS011;10437;48.156;11.530;2023-05-27T06:12:59;11.38;;;5.32;;
20557;SDS011;10437;48.156;11.530;2023-05-27T06:15:28;15.48;;;5.57;;
20557;SDS011;10437;48.156;11.530;2023-05-27T06:17:55;8.85;;;5.05;;
20557;SDS011;10437;48.156;11.530;2023-05-27T06:20:23;15.93;;;5.63;;
20557;SDS011;10437;48.156;11.530;2023-05-27T06:22:50;16.98;;;5.43;;
20557;SDS011;10437;48.156;11.530;2023-05-27T06:25:17;13.05;;;5.32;;
20557;SDS011;10437;48.156;11.530;2023-05-27T06:27:44;13.00;;;5.75;;
20557;SDS011;10437;48.156;11.530;2023-05-27T06:30:11;14.20;;;5.40;;
20557;SDS011;10437;48.156;11.530;2023-05-27T06:32:40;11.85;;;5.32;;
20557;SDS011;10437;48.156;11.530;2023-05-27T06:35:07;14.27;;;5.35;;
20557;SDS011;10437;48.156;11.530;2023-05-27T06:37:34;9.23;;;4.72;;
20557;SDS011;10437;48.156;11.530;2023-05-27T06:40:01;11.07;;;5.00;;
20557;SDS011;10437;48.156;11.530;2023-05-27T06:42:29;11.50;;;5.15;;
20557;SDS011;10437;48.156;11.530;2023-05-27T06:44:56;12.20;;;4.90;;
20557;SDS011;10437;48.156;11.530;2023-05-27T06:47:23;16.52;;;5.10;;
20557;SDS011;10437;48.156;11.530;2023-05-27T06:49:52;14.25;;;4.82;;
20557;SDS011;10437;48.156;11.530;2023-05-27T06:52:18;12.90;;;4.72;;
20557;SDS011;10437;48.156;11.530;2023-05-27T06:54:46;11.50;;;4.85;;
20557;SDS011;10437;48.156;11.530;2023-05-27T06:57:13;9.55;;;4.30;;
20557;SDS011;10437;48.156;11.530;2023-05-27T06:59:40;13.55;;;5.30;;
20557;SDS011;10437;48.156;11.530;2023-05-27T07:02:07;7.72;;;4.28;;
20557;SDS011;10437;48.156;11.530;2023-05-27T07:04:34;16.35;;;5.15;;
20557;SDS011;10437;48.156;11.530;2023-05-27T07:07:03;10.95;;;4.50;;
20557;SDS011;10437;48.156;11.530;2023-05-27T07:09:30;15.75;;;4.63;;
20557;SDS011;10437;48.156;11.530;2023-05-27T07:11:57;10.30;;;4.35;;
20557;SDS011;10437;48.156;11.530;2023-05-27T07:14:24;15.55;;;4.45;;
20557;SDS011;10437;48.156;11.530;2023-05-27T07:16:51;11.98;;;4.43;;
20557;SDS011;10437;48.156;11.530;2023-05-27T07:19:19;12.68;;;4.20;;
20557;SDS011;10437;48.156;11.530;2023-05-27T07:21:46;11.13;;;3.80;;
20557;SDS011;10437;48.156;11.530;2023-05-27T07:24:14;8.68;;;3.53;;
20557;SDS011;10437;48.156;11.530;2023-05-27T07:26:41;10.60;;;4.07;;
20557;SDS011;10437;48.156;11.530;2023-05-27T07:29:08;12.45;;;5.10;;
20557;SDS011;10437;48.156;11.530;2023-05-27T07:31:36;8.15;;;4.18;;
20557;SDS011;10437;48.156;11.530;2023-05-27T07:34:04;10.05;;;3.75;;
20557;SDS011;10437;48.156;11.530;2023-05-27T07:36:31;15.68;;;3.97;;
20557;SDS011;10437;48.156;11.530;2023-05-27T07:38:58;10.88;;;4.07;;
20557;SDS011;10437;48.156;11.530;2023-05-27T07:41:27;15.52;;;4.25;;
20557;SDS011;10437;48.156;11.530;2023-05-27T07:43:54;10.75;;;4.63;;
20557;SDS011;10437;48.156;11.530;2023-05-27T07:46:21;15.25;;;4.10;;
20557;SDS011;10437;48.156;11.530;2023-05-27T07:48:48;13.45;;;4.20;;
20557;SDS011;10437;48.156;11.530;2023-05-27T07:51:16;12.77;;;4.20;;
20557;SDS011;10437;48.156;11.530;2023-05-27T07:53:43;11.40;;;4.15;;
20557;SDS011;10437;48.156;11.530;2023-05-27T07:56:10;10.68;;;3.83;;
20557;SDS011;10437;48.156;11.530;2023-05-27T07:58:38;13.40;;;4.30;;
20557;SDS011;10437;48.156;11.530;2023-05-27T08:01:05;9.27;;;3.70;;
20557;SDS011;10437;48.156;11.530;2023-05-27T08:03:32;10.20;;;4.13;;
20557;SDS011;10437;48.156;11.530;2023-05-27T08:06:00;17.00;;;4.72;;
20557;SDS011;10437;48.156;11.530;2023-05-27T08:08:27;11.73;;;4.80;;
20557;SDS011;10437;48.156;11.530;2023-05-27T08:10:54;11.65;;;4.18;;
20557;SDS011;10437;48.156;11.530;2023-05-27T08:13:22;12.40;;;4.80;;
20557;SDS011;10437;48.156;11.530;2023-05-27T08:15:50;10.80;;;4.55;;
20557;SDS011;10437;48.156;11.530;2023-05-27T08:18:17;13.65;;;4.22;;
20557;SDS011;10437;48.156;11.530;2023-05-27T08:20:44;11.13;;;4.68;;
20557;SDS011;10437;48.156;11.530;2023-05-27T08:23:12;10.15;;;4.35;;
20557;SDS011;10437;48.156;11.530;2023-05-27T08:25:39;11.88;;;4.38;;
20557;SDS011;10437;48.156;11.530;2023-05-27T08:28:07;8.00;;;4.03;;
20557;SDS011;10437;48.156;11.530;2023-05-27T08:30:34;8.85;;;4.05;;
20557;SDS011;10437;48.156;11.530;2023-05-27T08:33:02;8.52;;;3.88;;
20557;SDS011;10437;48.156;11.530;2023-05-27T08:35:30;9.48;;;4.45;;
20557;SDS011;10437;48.156;11.530;2023-05-27T08:37:57;13.00;;;5.00;;
20557;SDS011;10437;48.156;11.530;2023-05-27T08:40:24;12.88;;;4.32;;
20557;SDS011;10437;48.156;11.530;2023-05-27T08:42:51;15.80;;;4.28;;
20557;SDS011;10437;48.156;11.530;2023-05-27T08:45:18;11.75;;;4.47;;
20557;SDS011;10437;48.156;11.530;2023-05-27T08:47:47;12.07;;;4.35;;
20557;SDS011;10437;48.156;11.530;2023-05-27T08:50:16;10.90;;;4.85;;
20557;SDS011;10437;48.156;11.530;2023-05-27T08:52:44;13.40;;;4.93;;
20557;SDS011;10437;48.156;11.530;2023-05-27T08:55:14;18.33;;;4.60;;
20557;SDS011;10437;48.156;11.530;2023-05-27T08:57:42;12.65;;;4.38;;
20557;SDS011;10437;48.156;11.530;2023-05-27T09:00:13;10.07;;;4.47;;
20557;SDS011;10437;48.156;11.530;2023-05-27T09:02:40;12.05;;;4.32;;
20557;SDS011;10437;48.156;11.530;2023-05-27T09:05:07;9.18;;;4.55;;
20557;SDS011;10437;48.156;11.530;2023-05-27T09:07:36;12.45;;;4.82;;
20557;SDS011;10437;48.156;11.530;2023-05-27T09:10:03;10.32;;;4.32;;
20557;SDS011;10437;48.156;11.530;2023-05-27T09:12:31;12.00;;;4.53;;
20557;SDS011;10437;48.156;11.530;2023-05-27T09:14:58;7.07;;;4.20;;
20557;SDS011;10437;48.156;11.530;2023-05-27T09:17:26;6.75;;;4.13;;
20557;SDS011;10437;48.156;11.530;2023-05-27T09:19:54;9.80;;;4.93;;
20557;SDS011;10437;48.156;11.530;2023-05-27T09:22:21;13.60;;;5.10;;
20557;SDS011;10437;48.156;11.530;2023-05-27T09:24:51;12.25;;;4.60;;
20557;SDS011;10437;48.156;11.530;2023-05-27T09:27:19;12.70;;;5.03;;
20557;SDS011;10437;48.156;11.530;2023-05-27T09:29:50;10.38;;;4.70;;
20557;SDS011;10437;48.156;11.530;2023-05-27T09:32:23;12.77;;;4.10;;
20557;SDS011;10437;48.156;11.530;2023-05-27T09:34:51;11.30;;;4.65;;
20557;SDS011;10437;48.156;11.530;2023-05-27T09:37:19;9.82;;;4.97;;
20557;SDS011;10437;48.156;11.530;2023-05-27T09:39:46;11.82;;;4.50;;
20557;SDS011;10437;48.156;11.530;2023-05-27T09:42:15;14.13;;;5.05;;
20557;SDS011;10437;48.156;11.530;2023-05-27T09:44:42;9.38;;;4.38;;
20557;SDS011;10437;48.156;11.530;2023-05-27T09:47:13;10.80;;;5.00;;
20557;SDS011;10437;48.156;11.530;2023-05-27T09:49:42;10.68;;;4.55;;
20557;SDS011;10437;48.156;11.530;2023-05-27T09:52:10;12.00;;;5.00;;
20557;SDS011;10437;48.156;11.530;2023-05-27T09:54:38;10.80;;;4.68;;
20557;SDS011;10437;48.156;11.530;2023-05-27T09:57:06;10.30;;;4.97;;
20557;SDS011;10437;48.156;11.530;2023-05-27T09:59:34;11.00;;;4.88;;
20557;SDS011;10437;48.156;11.530;2023-05-27T10:02:02;12.85;;;4.82;;
20557;SDS011;10437;48.156;11.530;2023-05-27T10:04:30;10.30;;;4.47;;
20557;SDS011;10437;48.156;11.530;2023-05-27T10:06:58;13.13;;;4.30;;
20557;SDS011;10437;48.156;11.530;2023-05-27T10:09:27;10.02;;;4.53;;
20557;SDS011;10437;48.156;11.530;2023-05-27T10:11:54;10.52;;;4.93;;
20557;SDS011;10437;48.156;11.530;2023-05-27T10:14:21;7.15;;;3.97;;
20557;SDS011;10437;48.156;11.530;2023-05-27T10:16:53;11.18;;;4.30;;
20557;SDS011;10437;48.156;11.530;2023-05-27T10:19:22;13.05;;;4.63;;
20557;SDS011;10437;48.156;11.530;2023-05-27T10:21:49;10.20;;;4.57;;
20557;SDS011;10437;48.156;11.530;2023-05-27T10:24:16;11.05;;;4.53;;
20557;SDS011;10437;48.156;11.530;2023-05-27T10:26:44;12.00;;;4.80;;
20557;SDS011;10437;48.156;11.530;2023-05-27T10:29:13;9.50;;;4.53;;
20557;SDS011;10437;48.156;11.530;2023-05-27T10:31:44;11.63;;;4.03;;
20557;SDS011;10437;48.156;11.530;2023-05-27T10:34:13;10.75;;;4.47;;
20557;SDS011;10437;48.156;11.530;2023-05-27T10:36:40;13.23;;;4.53;;
20557;SDS011;10437;48.156;11.530;2023-05-27T10:39:12;10.60;;;4.30;;
20557;SDS011;10437;48.156;11.530;2023-05-27T10:41:40;8.93;;;4.53;;
20557;SDS011;10437;48.156;11.530;2023-05-27T10:44:07;12.13;;;4.82;;
20557;SDS011;10437;48.156;11.530;2023-05-27T10:46:38;10.63;;;4.60;;
20557;SDS011;10437;48.156;11.530;2023-05-27T10:49:09;9.55;;;4.20;;
20557;SDS011;10437;48.156;11.530;2023-05-27T10:51:38;9.45;;;4.47;;
20557;SDS011;10437;48.156;11.530;2023-05-27T10:54:06;14.05;;;5.15;;
20557;SDS011;10437;48.156;11.530;2023-05-27T10:56:33;11.02;;;4.25;;
20557;SDS011;10437;48.156;11.530;2023-05-27T10:59:01;8.95;;;4.55;;
20557;SDS011;10437;48.156;11.530;2023-05-27T11:01:28;12.32;;;4.93;;
20557;SDS011;10437;48.156;11.530;2023-05-27T11:03:58;9.10;;;4.70;;
20557;SDS011;10437;48.156;11.530;2023-05-27T11:06:25;14.43;;;4.30;;
20557;SDS011;10437;48.156;11.530;2023-05-27T11:08:55;9.90;;;4.43;;
20557;SDS011;10437;48.156;11.530;2023-05-27T11:11:22;9.68;;;4.25;;
20557;SDS011;10437;48.156;11.530;2023-05-27T11:13:49;8.65;;;3.92;;
20557;SDS011;10437;48.156;11.530;2023-05-27T11:16:17;7.88;;;4.20;;
20557;SDS011;10437;48.156;11.530;2023-05-27T11:18:45;8.40;;;4.43;;
20557;SDS011;10437;48.156;11.530;2023-05-27T11:21:14;9.68;;;4.20;;
20557;SDS011;10437;48.156;11.530;2023-05-27T11:23:42;9.63;;;4.50;;
20557;SDS011;10437;48.156;11.530;2023-05-27T11:26:12;9.85;;;4.57;;
20557;SDS011;10437;48.156;11.530;2023-05-27T11:28:49;10.27;;;4.07;;
20557;SDS011;10437;48.156;11.530;2023-05-27T11:31:18;9.88;;;4.30;;
20557;SDS011;10437;48.156;11.530;2023-05-27T11:33:46;13.43;;;4.47;;
20557;SDS011;10437;48.156;11.530;2023-05-27T11:36:16;10.73;;;4.60;;
20557;SDS011;10437;48.156;11.530;2023-05-27T11:38:47;11.23;;;4.30;;
20557;SDS011;10437;48.156;11.530;2023-05-27T11:41:16;9.40;;;4.07;;
20557;SDS011;10437;48.156;11.530;2023-05-27T11:43:50;10.70;;;4.20;;
20557;SDS011;10437;48.156;11.530;2023-05-27T11:46:20;10.00;;;4.20;;
20557;SDS011;10437;48.156;11.530;2023-05-27T11:48:47;11.25;;;4.25;;
20557;SDS011;10437;48.156;11.530;2023-05-27T11:51:15;8.63;;;4.22;;
20557;SDS011;10437;48.156;11.530;2023-05-27T11:53:44;8.35;;;4.07;;
20557;SDS011;10437;48.156;11.530;2023-05-27T11:56:12;8.73;;;4.28;;
20557;SDS011;10437;48.156;11.530;2023-05-27T11:58:41;14.65;;;3.83;;
20557;SDS011;10437;48.156;11.530;2023-05-27T12:01:08;8.02;;;3.90;;
20557;SDS011;10437;48.156;11.530;2023-05-27T12:03:35;6.95;;;3.55;;
20557;SDS011;10437;48.156;11.530;2023-05-27T12:06:02;7.85;;;4.03;;
20557;SDS011;10437;48.156;11.530;2023-05-27T12:08:30;7.80;;;4.10;;
20557;SDS011;10437;48.156;11.530;2023-05-27T12:10:57;7.30;;;3.63;;
20557;SDS011;10437;48.156;11.530;2023-05-27T12:13:24;9.82;;;4.05;;
20557;SDS011;10437;48.156;11.530;2023-05-27T12:15:55;9.77;;;3.75;;
20557;SDS011;10437;48.156;11.530;2023-05-27T12:18:22;9.93;;;4.00;;
20557;SDS011;10437;48.156;11.530;2023-05-27T12:20:49;8.30;;;3.80;;
20557;SDS011;10437;48.156;11.530;2023-05-27T12:23:16;8.75;;;3.80;;
20557;SDS011;10437;48.156;11.530;2023-05-27T12:25:44;8.52;;;3.67;;
20557;SDS011;10437;48.156;11.530;2023-05-27T12:28:11;8.32;;;3.58;;
20557;SDS011;10437;48.156;11.530;2023-05-27T12:30:38;9.25;;;3.75;;
20557;SDS011;10437;48.156;11.530;2023-05-27T12:33:06;7.53;;;3.50;;
20557;SDS011;10437;48.156;11.530;2023-05-27T12:35:33;10.13;;;3.90;;
20557;SDS011;10437;48.156;11.530;2023-05-27T12:38:00;11.40;;;4.13;;
20557;SDS011;10437;48.156;11.530;2023-05-27T12:40:28;9.05;;;3.25;;
20557;SDS011;10437;48.156;11.530;2023-05-27T12:42:55;8.05;;;3.75;;
20557;SDS011;10437;48.156;11.530;2023-05-27T12:45:23;7.20;;;3.50;;
20557;SDS011;10437;48.156;11.530;2023-05-27T12:47:51;4.28;;;2.80;;
20557;SDS011;10437;48.156;11.530;2023-05-27T12:50:19;6.60;;;3.60;;
20557;SDS011;10437;48.156;11.530;2023-05-27T12:52:47;9.65;;;3.60;;
20557;SDS011;10437;48.156;11.530;2023-05-27T12:55:15;9.73;;;4.00;;
20557;SDS011;10437;48.156;11.530;2023-05-27T12:57:43;7.20;;;3.85;;
20557;SDS011;10437;48.156;11.530;2023-05-27T13:00:11;10.43;;;3.72;;
20557;SDS011;10437;48.156;11.530;2023-05-27T13:02:38;11.23;;;3.42;;
20557;SDS011;10437;48.156;11.530;2023-05-27T13:05:06;6.70;;;3.13;;
20557;SDS011;10437;48.156;11.530;2023-05-27T13:07:34;11.85;;;4.05;;
20557;SDS011;10437;48.156;11.530;2023-05-27T13:10:04;12.00;;;3.92;;
20557;SDS011;10437;48.156;11.530;2023-05-27T13:12:33;10.90;;;4.47;;
20557;SDS011;10437;48.156;11.530;2023-05-27T13:15:00;9.45;;;3.58;;
20557;SDS011;10437;48.156;11.530;2023-05-27T13:17:29;8.10;;;3.40;;
20557;SDS011;10437;48.156;11.530;2023-05-27T13:19:56;8.13;;;3.30;;
20557;SDS011;10437;48.156;11.530;2023-05-27T13:22:23;8.65;;;3.50;;
20557;SDS011;10437;48.156;11.530;2023-05-27T13:24:52;8.52;;;3.55;;
20557;SDS011;10437;48.156;11.530;2023-05-27T13:27:19;6.15;;;3.38;;
20557;SDS011;10437;48.156;11.530;2023-05-27T13:29:46;8.43;;;3.80;;
20557;SDS011;10437;48.156;11.530;2023-05-27T13:32:13;7.13;;;3.63;;
20557;SDS011;10437;48.156;11.530;2023-05-27T13:34:40;7.30;;;3.38;;
20557;SDS011;10437;48.156;11.530;2023-05-27T13:37:07;9.35;;;4.10;;
20557;SDS011;10437;48.156;11.530;2023-05-27T13:39:34;8.07;;;3.70;;
20557;SDS011;10437;48.156;11.530;2023-05-27T13:42:09;10.63;;;3.53;;
20557;SDS011;10437;48.156;11.530;2023-05-27T13:44:36;10.40;;;3.75;;
20557;SDS011;10437;48.156;11.530;2023-05-27T13:47:03;6.90;;;3.45;;
20557;SDS011;10437;48.156;11.530;2023-05-27T13:49:31;9.30;;;3.80;;
20557;SDS011;10437;48.156;11.530;2023-05-27T13:51:58;11.02;;;3.80;;
20557;SDS011;10437;48.156;11.530;2023-05-27T13:54:25;8.52;;;3.75;;
20557;SDS011;10437;48.156;11.530;2023-05-27T13:56:53;11.80;;;3.60;;
20557;SDS011;10437;48.156;11.530;2023-05-27T13:59:21;12.00;;;4.03;;
20557;SDS011;10437;48.156;11.530;2023-05-27T14:01:48;7.03;;;3.45;;
20557;SDS011;10437;48.156;11.530;2023-05-27T14:04:16;12.88;;;4.03;;
20557;SDS011;10437;48.156;11.530;2023-05-27T14:06:43;9.90;;;3.60;;
20557;SDS011;10437;48.156;11.530;2023-05-27T14:09:10;8.80;;;3.13;;
20557;SDS011;10437;48.156;11.530;2023-05-27T14:11:38;6.78;;;3.63;;
20557;SDS011;10437;48.156;11.530;2023-05-27T14:14:05;7.63;;;3.40;;
20557;SDS011;10437;48.156;11.530;2023-05-27T14:16:33;6.22;;;3.35;;
20557;SDS011;10437;48.156;11.530;2023-05-27T14:19:00;9.43;;;3.47;;
20557;SDS011;10437;48.156;11.530;2023-05-27T14:21:27;7.53;;;3.42;;
20557;SDS011;10437;48.156;11.530;2023-05-27T14:23:55;10.05;;;3.28;;
20557;SDS011;10437;48.156;11.530;2023-05-27T14:26:22;9.20;;;3.92;;